createdAt,value
2023-04-24T04:00:59.346Z,98302.75
2023-04-24T04:05:20.758Z,98289.84
2023-04-24T04:09:23.427Z,98298.03
2023-04-24T04:13:25.987Z,98287.66
2023-04-24T04:17:29.913Z,98304.06
2023-04-24T04:21:33.321Z,98293.50
2023-04-24T04:26:00.683Z,98293.75
2023-04-24T04:30:13.958Z,98298.69
2023-04-24T04:34:27.493Z,98303.63
2023-04-24T04:38:30.956Z,98292.94
2023-04-24T04:42:41.581Z,98299.81
2023-04-24T04:46:45.146Z,98303.28
2023-04-24T04:50:59.801Z,98294.00
2023-04-24T04:55:03.518Z,98298.63
2023-04-24T04:59:26.276Z,98291.72
2023-04-24T05:03:37.087Z,98291.88
2023-04-24T05:07:44.774Z,98292.44
2023-04-24T05:11:47.469Z,98299.50
2023-04-24T05:15:50.102Z,98295.56
2023-04-24T05:19:52.938Z,98297.34
2023-04-24T05:23:57.234Z,98293.63
2023-04-24T05:28:18.272Z,98297.25
2023-04-24T05:32:28.014Z,98300.91
2023-04-24T05:36:31.812Z,98305.91
2023-04-24T05:40:35.796Z,98306.97
2023-04-24T05:44:38.303Z,98312.13
2023-04-24T05:48:41.950Z,98313.75
2023-04-24T05:52:44.486Z,98324.16
2023-04-24T05:57:00.384Z,98335.38
2023-04-24T06:01:19.110Z,98334.75
2023-04-24T06:05:26.866Z,98327.25
2023-04-24T06:09:29.710Z,98332.72
2023-04-24T06:13:34.647Z,98342.81
2023-04-24T06:18:00.814Z,98341.56
2023-04-24T06:22:03.755Z,98346.94
2023-04-24T06:26:06.912Z,98337.81
2023-04-24T06:30:11.987Z,98327.25
2023-04-24T06:34:14.869Z,98335.19
2023-04-24T06:38:17.904Z,98331.28
2023-04-24T06:42:21.696Z,98334.09
2023-04-24T06:46:28.786Z,98332.81
2023-04-24T06:50:31.543Z,98333.06
2023-04-24T06:54:34.248Z,98343.78
2023-04-24T06:58:36.841Z,98370.56
2023-04-24T07:02:40.975Z,98379.16
2023-04-24T07:06:43.669Z,98383.59
2023-04-24T07:10:46.477Z,98393.94
2023-04-24T07:14:49.181Z,98383.25
2023-04-24T07:18:54.187Z,98383.78
2023-04-24T07:22:56.669Z,98400.84
2023-04-24T07:26:59.189Z,98398.88
2023-04-24T07:31:01.727Z,98392.16
2023-04-24T07:35:06.224Z,98404.81
2023-04-24T07:39:09.190Z,98400.09
2023-04-24T07:43:11.683Z,98400.84
2023-04-24T07:47:15.676Z,98416.06
2023-04-24T07:51:19.562Z,98410.41
2023-04-24T07:55:24.761Z,98417.44
2023-04-24T07:59:29.420Z,98404.56
2023-04-24T08:03:32.130Z,98414.19
2023-04-24T08:07:36.956Z,98414.97
2023-04-24T08:11:39.510Z,98411.38
2023-04-24T08:15:42.049Z,98423.66
2023-04-24T08:19:49.216Z,98436.19
2023-04-24T08:23:53.071Z,98428.41
2023-04-24T08:27:56.361Z,98436.84
2023-04-24T08:31:59.226Z,98433.97
2023-04-24T08:36:02.089Z,98447.72
2023-04-24T08:40:11.403Z,98441.13
2023-04-24T08:44:16.568Z,98441.47
2023-04-24T08:48:29.707Z,98450.03
2023-04-24T08:52:34.668Z,98441.50
2023-04-24T08:56:41.119Z,98470.75
2023-04-24T09:00:47.837Z,98451.16
2023-04-24T09:04:51.728Z,98455.91
2023-04-24T09:08:56.860Z,98460.22
2023-04-24T09:13:02.807Z,98469.00
2023-04-24T09:17:05.568Z,98459.19
2023-04-24T09:21:10.537Z,98468.22
2023-04-24T09:25:13.771Z,98472.31
2023-04-24T09:29:18.809Z,98465.88
2023-04-24T09:33:21.483Z,98472.09
2023-04-24T09:37:30.517Z,98485.75
2023-04-24T09:41:34.885Z,98488.00
2023-04-24T09:45:39.983Z,98485.38
2023-04-24T09:49:44.948Z,98484.03
2023-04-24T09:53:48.588Z,98484.13
2023-04-24T09:58:01.912Z,98485.44
2023-04-24T10:02:19.370Z,98487.78
2023-04-24T10:06:21.953Z,98487.06
2023-04-24T10:10:24.844Z,98491.22
2023-04-24T10:14:27.472Z,98496.50
2023-04-24T10:18:33.280Z,98489.41
2023-04-24T10:22:35.963Z,98489.06
2023-04-24T10:26:38.617Z,98501.56
2023-04-24T10:30:44.601Z,98495.88
2023-04-24T10:34:48.504Z,98492.84
2023-04-24T10:38:51.937Z,98495.25
2023-04-24T10:42:56.963Z,98489.59
2023-04-24T10:47:01.109Z,98485.66
2023-04-24T10:51:05.309Z,98475.91
2023-04-24T10:55:09.021Z,98477.03
2023-04-24T10:59:12.291Z,98472.81
2023-04-24T11:03:28.896Z,98480.59
2023-04-24T11:08:11.780Z,98482.72
2023-04-24T11:12:15.336Z,98475.56
2023-04-24T11:16:23.236Z,98468.00
2023-04-24T11:20:28.536Z,98468.03
2023-04-24T11:24:34.760Z,98471.38
2023-04-24T11:28:37.769Z,98478.72
2023-04-24T11:32:42.353Z,98488.13
2023-04-24T11:36:45.965Z,98506.91
2023-04-24T11:40:50.248Z,98486.34
2023-04-24T11:44:55.139Z,98482.44
2023-04-24T11:48:58.491Z,98489.81
2023-04-24T11:53:01.416Z,98504.09
2023-04-24T11:57:08.940Z,98491.09
2023-04-24T12:01:11.507Z,98497.50
2023-04-24T12:05:21.839Z,98503.84
2023-04-24T12:09:24.577Z,98531.38
2023-04-24T12:13:29.074Z,98529.50
2023-04-24T12:17:33.096Z,98553.78
2023-04-24T12:21:35.936Z,98541.69
2023-04-24T12:25:40.506Z,98539.50
2023-04-24T12:29:55.112Z,98532.59
2023-04-24T12:33:57.645Z,98545.63
2023-04-24T12:38:07.517Z,98534.66
2023-04-24T12:42:10.697Z,98554.94
2023-04-24T12:46:16.905Z,98589.13
2023-04-24T12:50:20.390Z,98590.81
2023-04-24T12:54:22.975Z,98607.38
2023-04-24T12:58:25.621Z,98594.31
2023-04-24T13:02:31.912Z,98612.78
2023-04-24T13:06:34.745Z,98623.69
2023-04-24T13:10:37.583Z,98636.81
2023-04-24T13:14:40.581Z,98632.84
2023-04-24T13:18:44.448Z,98643.31
2023-04-24T13:22:47.005Z,98643.19
2023-04-24T13:26:49.512Z,98645.56
2023-04-24T13:30:52.430Z,98640.47
2023-04-24T13:34:56.434Z,98649.56
2023-04-24T13:38:59.258Z,98658.81
2023-04-24T13:43:02.148Z,98662.31
2023-04-24T13:47:04.717Z,98673.28
2023-04-24T13:51:08.635Z,98673.75
2023-04-24T13:55:11.697Z,98689.25
2023-04-24T13:59:14.893Z,98692.34
2023-04-24T14:03:17.671Z,98713.47
2023-04-24T14:07:21.796Z,98713.03
2023-04-24T14:11:24.363Z,98712.63
2023-04-24T14:15:26.956Z,98714.88
2023-04-24T14:19:29.497Z,98698.84
2023-04-24T14:23:33.714Z,98727.16
2023-04-24T14:27:36.430Z,98748.66
2023-04-24T14:31:39.067Z,98730.25
2023-04-24T14:35:42.991Z,98737.22
2023-04-24T14:39:56.313Z,98751.38
2023-04-24T14:44:09.104Z,98740.56
2023-04-24T14:48:12.298Z,98749.66
2023-04-24T14:52:14.847Z,98763.28
2023-04-24T14:56:18.725Z,98757.75
2023-04-24T15:00:24.187Z,98763.78
2023-04-24T15:04:27.357Z,98767.63
2023-04-24T15:08:30.115Z,98772.00
2023-04-24T15:12:34.205Z,98775.75
2023-04-24T15:16:36.787Z,98783.31
2023-04-24T15:20:40.772Z,98779.00
2023-04-24T15:24:43.358Z,98790.34
2023-04-24T15:28:47.634Z,98782.00
2023-04-24T15:32:50.172Z,98797.53
2023-04-24T15:36:52.702Z,98790.13
2023-04-24T15:40:55.232Z,98783.44
2023-04-24T15:44:59.066Z,98798.06
2023-04-24T15:49:01.601Z,98789.50
2023-04-24T15:53:04.240Z,98796.69
2023-04-24T15:57:06.837Z,98794.16
2023-04-24T16:01:10.717Z,98808.75
2023-04-24T16:05:13.231Z,98805.16
2023-04-24T16:09:15.965Z,98812.59
2023-04-24T16:13:18.662Z,98810.97
2023-04-24T16:17:22.542Z,98803.38
2023-04-24T16:21:25.110Z,98809.44
2023-04-24T16:25:27.744Z,98817.38
2023-04-24T16:29:30.315Z,98811.53
2023-04-24T16:33:34.189Z,98832.53
2023-04-24T16:37:37.080Z,98828.41
2023-04-24T16:41:39.756Z,98831.00
2023-04-24T16:45:42.382Z,98837.88
2023-04-24T16:49:46.301Z,98837.38
2023-04-24T16:53:48.837Z,98841.59
2023-04-24T16:57:51.346Z,98845.63
2023-04-24T17:01:53.893Z,98851.22
2023-04-24T17:05:57.845Z,98857.66
2023-04-24T17:10:00.430Z,98857.41
2023-04-24T17:14:03.189Z,98857.97
2023-04-24T17:18:06.876Z,98852.41
2023-04-24T17:22:10.809Z,98863.25
2023-04-24T17:26:13.514Z,98851.53
2023-04-24T17:30:17.549Z,98852.50
2023-04-24T17:34:20.187Z,98858.53
2023-04-24T17:38:24.376Z,98863.31
2023-04-24T17:42:27.174Z,98855.28
2023-04-24T17:46:29.845Z,98863.50
2023-04-24T17:50:32.430Z,98860.72
2023-04-24T17:54:36.406Z,98865.53
2023-04-24T17:58:38.981Z,98860.78
2023-04-24T18:02:41.622Z,98873.66
2023-04-24T18:06:44.247Z,98872.81
2023-04-24T18:10:48.168Z,98864.34
2023-04-24T18:14:53.083Z,98884.16
2023-04-24T18:19:02.395Z,98877.06
2023-04-24T18:23:05.467Z,98887.13
2023-04-24T18:27:09.614Z,98892.47
2023-04-24T18:31:12.384Z,98906.47
2023-04-24T18:35:15.004Z,98906.34
2023-04-24T18:39:17.523Z,98914.56
2023-04-24T18:43:21.583Z,98919.66
2023-04-24T18:47:24.177Z,98921.38
2023-04-24T18:51:26.798Z,98932.78
2023-04-24T18:55:29.326Z,98932.22
2023-04-24T18:59:33.184Z,98941.81
2023-04-24T19:03:35.730Z,98953.66
2023-04-24T19:07:38.515Z,98944.53
2023-04-24T19:11:41.665Z,98946.59
2023-04-24T19:15:45.586Z,98954.84
2023-04-24T19:19:48.126Z,98954.59
2023-04-24T19:23:52.435Z,98964.53
2023-04-24T19:27:55.093Z,98971.81
2023-04-24T19:31:59.024Z,98970.75
2023-04-24T19:36:01.729Z,98967.22
2023-04-24T19:40:05.210Z,98976.16
2023-04-24T19:44:07.593Z,98972.03
2023-04-24T19:48:11.583Z,98968.97
2023-04-24T19:52:15.185Z,98963.41
2023-04-24T19:56:17.716Z,98968.38
2023-04-24T20:00:20.463Z,98958.25
2023-04-24T20:04:24.576Z,98949.81
2023-04-24T20:08:27.273Z,98959.34
2023-04-24T20:12:29.895Z,98969.22
2023-04-24T20:16:32.589Z,98965.25
2023-04-24T20:20:38.625Z,98955.75
2023-04-24T20:24:41.353Z,98959.47
2023-04-24T20:28:43.888Z,98961.97
2023-04-24T20:32:46.508Z,98964.69
2023-04-24T20:36:50.432Z,98964.91
2023-04-24T20:44:58.722Z,98959.72
2023-04-24T20:49:02.878Z,98961.38
2023-04-24T20:53:06.907Z,98958.69
2023-04-24T20:57:09.599Z,98958.88
